createdAt,value
2022-11-27T00:00:52.612Z,1015.89
2022-11-27T00:01:53.609Z,1015.88
2022-11-27T00:03:00.138Z,1015.84
2022-11-27T00:03:52.882Z,1015.90
2022-11-27T00:04:52.622Z,1015.82
2022-11-27T00:05:52.547Z,1015.81
2022-11-27T00:06:52.761Z,1015.79
2022-11-27T00:07:55.802Z,1015.82
2022-11-27T00:08:52.772Z,1015.76
2022-11-27T00:09:53.767Z,1015.73
2022-11-27T00:10:52.735Z,1015.72
2022-11-27T00:11:52.485Z,1015.69
2022-11-27T00:12:52.492Z,1015.72
2022-11-27T00:13:59.702Z,1015.69
2022-11-27T00:14:55.589Z,1015.70
2022-11-27T00:15:53.792Z,1015.70
2022-11-27T00:16:53.682Z,1015.67
2022-11-27T00:17:55.702Z,1015.64
2022-11-27T00:18:52.641Z,1015.63
2022-11-27T00:19:52.433Z,1015.61
2022-11-27T00:20:59.531Z,1015.63
2022-11-27T00:21:52.408Z,1015.60
2022-11-27T00:22:52.369Z,1015.56
2022-11-27T00:23:53.415Z,1015.62
2022-11-27T00:24:53.377Z,1015.59
2022-11-27T00:25:52.378Z,1015.58
2022-11-27T00:26:52.362Z,1015.59
2022-11-27T00:27:52.328Z,1015.62
2022-11-27T00:28:52.302Z,1015.57
2022-11-27T00:29:52.550Z,1015.56
2022-11-27T00:30:52.397Z,1015.47
2022-11-27T00:31:55.363Z,1015.50
2022-11-27T00:32:59.426Z,1015.51
2022-11-27T00:33:52.266Z,1015.53
2022-11-27T00:34:52.486Z,1015.47
2022-11-27T00:35:52.277Z,1015.47
2022-11-27T00:36:52.256Z,1015.39
2022-11-27T00:37:53.242Z,1015.35
2022-11-27T00:38:52.201Z,1015.32
2022-11-27T00:39:52.450Z,1015.32
2022-11-27T00:40:55.199Z,1015.32
2022-11-27T00:41:52.438Z,1015.30
2022-11-27T00:42:52.396Z,1015.28
2022-11-27T00:43:55.209Z,1015.25
2022-11-27T00:44:52.196Z,1015.27
2022-11-27T00:46:13.165Z,1015.25
2022-11-27T00:46:52.193Z,1015.18
2022-11-27T00:47:52.096Z,1015.23
2022-11-27T00:48:52.352Z,1015.23
2022-11-27T00:49:52.139Z,1015.21
2022-11-27T00:51:07.440Z,1015.18
2022-11-27T00:51:53.305Z,1015.19
2022-11-27T00:52:55.118Z,1015.20
2022-11-27T00:53:52.295Z,1015.15
2022-11-27T00:54:52.297Z,1015.17
2022-11-27T00:55:59.275Z,1015.07
2022-11-27T00:56:53.268Z,1015.12
2022-11-27T00:57:52.285Z,1015.12
2022-11-27T00:58:52.014Z,1015.10
2022-11-27T00:59:54.999Z,1015.11
2022-11-27T01:00:52.030Z,1015.06
2022-11-27T01:01:55.328Z,1015.08
2022-11-27T01:02:52.037Z,1015.05
2022-11-27T01:03:53.188Z,1015.07
2022-11-27T01:04:52.173Z,1015.04
2022-11-27T01:05:51.937Z,1015.03
2022-11-27T01:06:51.942Z,1015.06
2022-11-27T01:07:52.195Z,1015.03
2022-11-27T01:08:51.890Z,1015.05
2022-11-27T01:09:54.899Z,1015.07
2022-11-27T01:10:54.751Z,1015.04
2022-11-27T01:11:51.881Z,1015.00
2022-11-27T01:12:51.873Z,1015.03
2022-11-27T01:13:52.870Z,1015.08
2022-11-27T01:14:54.870Z,1015.05
2022-11-27T01:15:54.886Z,1015.01
2022-11-27T01:16:52.078Z,1015.06
2022-11-27T01:17:54.818Z,1015.01
2022-11-27T01:19:07.046Z,1014.96
2022-11-27T01:19:52.792Z,1014.99
2022-11-27T01:21:12.750Z,1014.97
2022-11-27T01:21:51.781Z,1014.95
2022-11-27T01:22:51.747Z,1014.92
2022-11-27T01:23:51.759Z,1014.93
2022-11-27T01:24:52.964Z,1014.91
2022-11-27T01:25:51.959Z,1014.86
2022-11-27T01:26:51.962Z,1014.93
2022-11-27T01:27:52.954Z,1014.89
2022-11-27T01:28:52.730Z,1014.90
2022-11-27T01:29:51.922Z,1014.91
2022-11-27T01:30:51.779Z,1014.91
2022-11-27T01:31:51.916Z,1014.84
2022-11-27T01:32:52.660Z,1014.85
2022-11-27T01:33:58.708Z,1014.88
2022-11-27T01:34:54.317Z,1014.79
2022-11-27T01:35:51.617Z,1014.77
2022-11-27T01:36:58.923Z,1014.78
2022-11-27T01:37:51.854Z,1014.72
2022-11-27T01:38:52.599Z,1014.73
2022-11-27T01:39:51.605Z,1014.72
2022-11-27T01:40:54.827Z,1014.69
2022-11-27T01:41:51.795Z,1014.69
2022-11-27T01:42:51.785Z,1014.69
2022-11-27T01:43:54.865Z,1014.69
2022-11-27T01:44:51.521Z,1014.67
2022-11-27T01:45:52.526Z,1014.65
2022-11-27T01:46:51.789Z,1014.62
2022-11-27T01:47:51.735Z,1014.63
2022-11-27T01:48:51.553Z,1014.62
2022-11-27T01:50:12.461Z,1014.62
2022-11-27T01:50:51.697Z,1014.64
2022-11-27T01:51:51.449Z,1014.61
2022-11-27T01:52:51.438Z,1014.64
2022-11-27T01:53:52.497Z,1014.62
2022-11-27T01:54:51.436Z,1014.68
2022-11-27T01:55:51.656Z,1014.68
2022-11-27T01:56:51.411Z,1014.71
2022-11-27T01:57:58.702Z,1014.64
2022-11-27T01:58:52.636Z,1014.66
2022-11-27T01:59:52.369Z,1014.66
2022-11-27T02:00:51.628Z,1014.66
2022-11-27T02:01:51.372Z,1014.67
2022-11-27T02:02:54.467Z,1014.67
2022-11-27T02:03:54.340Z,1014.65
2022-11-27T02:04:51.568Z,1014.64
2022-11-27T02:05:51.311Z,1014.59
2022-11-27T02:06:52.339Z,1014.63
2022-11-27T02:07:51.564Z,1014.60
2022-11-27T02:08:51.282Z,1014.62
2022-11-27T02:09:52.296Z,1014.59
2022-11-27T02:10:51.526Z,1014.59
2022-11-27T02:11:58.594Z,1014.62
2022-11-27T02:12:58.518Z,1014.60
2022-11-27T02:13:51.203Z,1014.60
2022-11-27T02:14:54.490Z,1014.58
2022-11-27T02:15:51.479Z,1014.59
2022-11-27T02:16:51.191Z,1014.59
2022-11-27T02:17:51.414Z,1014.60
2022-11-27T02:18:52.201Z,1014.56
2022-11-27T02:19:52.147Z,1014.57
2022-11-27T02:20:52.187Z,1014.54
2022-11-27T02:21:51.136Z,1014.53
2022-11-27T02:22:52.378Z,1014.54
2022-11-27T02:23:51.354Z,1014.53
2022-11-27T02:24:51.575Z,1014.51
2022-11-27T02:25:51.086Z,1014.52
2022-11-27T02:26:51.110Z,1014.47
2022-11-27T02:27:51.021Z,1014.45
2022-11-27T02:28:52.310Z,1014.49
2022-11-27T02:29:51.036Z,1014.46
2022-11-27T02:30:51.314Z,1014.49
2022-11-27T02:31:51.040Z,1014.49
2022-11-27T02:32:51.013Z,1014.52
2022-11-27T02:33:50.999Z,1014.49
2022-11-27T02:34:52.033Z,1014.48
2022-11-27T02:35:50.999Z,1014.52
2022-11-27T02:36:50.988Z,1014.50
2022-11-27T02:37:50.970Z,1014.48
2022-11-27T02:39:00.547Z,1014.50
2022-11-27T02:39:58.187Z,1014.50
2022-11-27T02:40:51.184Z,1014.47
2022-11-27T02:41:51.163Z,1014.49
2022-11-27T02:42:50.956Z,1014.53
2022-11-27T02:43:52.132Z,1014.50
2022-11-27T02:44:51.126Z,1014.50
2022-11-27T02:45:51.098Z,1014.49
2022-11-27T02:46:57.919Z,1014.49
2022-11-27T02:47:59.157Z,1014.54
2022-11-27T02:48:51.150Z,1014.52
2022-11-27T02:49:57.848Z,1014.51
2022-11-27T02:50:57.843Z,1014.50
2022-11-27T02:51:53.862Z,1014.44
2022-11-27T02:52:58.248Z,1014.45
2022-11-27T02:53:58.847Z,1014.49
2022-11-27T02:54:50.785Z,1014.50
2022-11-27T02:55:51.796Z,1014.54
2022-11-27T02:56:50.774Z,1014.54
2022-11-27T02:57:54.015Z,1014.53
2022-11-27T02:58:50.997Z,1014.53
2022-11-27T02:59:50.980Z,1014.52
2022-11-27T03:01:14.757Z,1014.45
2022-11-27T03:01:50.789Z,1014.50
2022-11-27T03:02:50.719Z,1014.48
2022-11-27T03:03:50.950Z,1014.48
2022-11-27T03:04:53.946Z,1014.48
2022-11-27T03:06:12.694Z,1014.47
2022-11-27T03:06:50.730Z,1014.48
2022-11-27T03:07:50.707Z,1014.50
2022-11-27T03:08:50.691Z,1014.49
2022-11-27T03:09:50.626Z,1014.49
2022-11-27T03:10:51.661Z,1014.50
2022-11-27T03:11:53.877Z,1014.44
2022-11-27T03:12:50.622Z,1014.43
2022-11-27T03:13:50.846Z,1014.44
2022-11-27T03:14:51.829Z,1014.38
2022-11-27T03:15:53.860Z,1014.40
2022-11-27T03:16:57.772Z,1014.37
2022-11-27T03:17:53.589Z,1014.38
2022-11-27T03:18:50.551Z,1014.38
2022-11-27T03:19:50.568Z,1014.38
2022-11-27T03:20:57.645Z,1014.34
2022-11-27T03:21:51.740Z,1014.33
2022-11-27T03:22:51.547Z,1014.26
2022-11-27T03:23:50.548Z,1014.26
2022-11-27T03:24:50.517Z,1014.28
2022-11-27T03:25:51.723Z,1014.31
2022-11-27T03:26:50.481Z,1014.29
2022-11-27T03:27:50.678Z,1014.29
2022-11-27T03:28:53.482Z,1014.32
2022-11-27T03:29:50.669Z,1014.30
2022-11-27T03:30:50.725Z,1014.28
2022-11-27T03:31:50.408Z,1014.28
2022-11-27T03:32:53.439Z,1014.26
2022-11-27T03:33:50.379Z,1014.28
2022-11-27T03:34:50.434Z,1014.26
2022-11-27T03:35:50.599Z,1014.27
2022-11-27T03:36:51.600Z,1014.25
2022-11-27T03:37:50.574Z,1014.29
2022-11-27T03:38:50.602Z,1014.27
2022-11-27T03:39:50.579Z,1014.30
2022-11-27T03:40:50.321Z,1014.26
2022-11-27T03:41:53.359Z,1014.28
2022-11-27T03:42:50.546Z,1014.26
2022-11-27T03:43:50.507Z,1014.24
2022-11-27T03:44:50.311Z,1014.17
2022-11-27T03:45:50.298Z,1014.16
2022-11-27T03:46:51.573Z,1014.14
2022-11-27T03:47:51.582Z,1014.11
2022-11-27T03:48:50.492Z,1014.10
2022-11-27T03:49:50.464Z,1014.09
2022-11-27T03:50:50.236Z,1014.13
2022-11-27T03:51:50.285Z,1014.10
2022-11-27T03:52:50.459Z,1014.07
2022-11-27T03:53:57.512Z,1014.11
2022-11-27T03:54:50.170Z,1014.13
2022-11-27T03:55:51.200Z,1014.11
2022-11-27T03:56:50.175Z,1014.15
2022-11-27T03:57:53.467Z,1014.15
2022-11-27T03:58:52.131Z,1014.14
2022-11-27T03:59:50.118Z,1014.18
2022-11-27T04:00:57.381Z,1014.17
2022-11-27T04:01:50.525Z,1014.23
2022-11-27T04:02:50.321Z,1014.22
2022-11-27T04:03:50.405Z,1014.22
2022-11-27T04:04:51.088Z,1014.21
2022-11-27T04:05:51.304Z,1014.20
2022-11-27T04:06:50.315Z,1014.19
2022-11-27T04:07:50.378Z,1014.20
2022-11-27T04:08:50.059Z,1014.17
2022-11-27T04:09:50.254Z,1014.16
2022-11-27T04:10:50.230Z,1014.12
2022-11-27T04:11:51.254Z,1014.08
2022-11-27T04:12:50.229Z,1014.11
2022-11-27T04:13:50.227Z,1014.06
2022-11-27T04:14:51.224Z,1014.03
2022-11-27T04:15:51.278Z,1014.00
2022-11-27T04:16:50.205Z,1013.98
2022-11-27T04:17:50.227Z,1014.02
2022-11-27T04:18:50.949Z,1014.01
2022-11-27T04:19:49.925Z,1014.00
2022-11-27T04:20:49.915Z,1014.02
2022-11-27T04:21:49.907Z,1014.02
2022-11-27T04:22:50.140Z,1013.98
2022-11-27T04:23:56.967Z,1013.99
2022-11-27T04:24:50.097Z,1013.95
2022-11-27T04:25:53.146Z,1013.91
2022-11-27T04:26:53.091Z,1013.92
2022-11-27T04:27:50.119Z,1013.95
2022-11-27T04:28:51.087Z,1013.90
2022-11-27T04:29:50.069Z,1013.91
2022-11-27T04:30:52.833Z,1013.89
2022-11-27T04:31:50.259Z,1013.86
2022-11-27T04:32:49.783Z,1013.88
2022-11-27T04:33:49.826Z,1013.90
2022-11-27T04:34:49.755Z,1013.84
2022-11-27T04:35:49.998Z,1013.91
2022-11-27T04:36:50.990Z,1013.90
2022-11-27T04:37:49.976Z,1013.86
2022-11-27T04:38:49.733Z,1013.82
2022-11-27T04:39:49.732Z,1013.82
2022-11-27T04:40:49.996Z,1013.81
2022-11-27T04:41:49.713Z,1013.78
2022-11-27T04:42:49.894Z,1013.77
2022-11-27T04:43:49.899Z,1013.71
2022-11-27T04:44:49.883Z,1013.69
2022-11-27T04:45:49.707Z,1013.68
2022-11-27T04:46:49.913Z,1013.67
2022-11-27T04:47:50.897Z,1013.67
2022-11-27T04:48:49.624Z,1013.69
2022-11-27T04:49:49.862Z,1013.65
2022-11-27T04:51:05.322Z,1013.64
2022-11-27T04:51:49.878Z,1013.68
2022-11-27T04:52:49.817Z,1013.67
2022-11-27T04:53:56.659Z,1013.66
2022-11-27T04:54:49.797Z,1013.67
2022-11-27T04:55:49.558Z,1013.65
2022-11-27T04:56:49.796Z,1013.64
2022-11-27T04:57:49.766Z,1013.62
2022-11-27T04:58:49.755Z,1013.59
2022-11-27T04:59:52.549Z,1013.63
2022-11-27T05:00:49.574Z,1013.61
2022-11-27T05:01:49.980Z,1013.64
2022-11-27T05:02:49.521Z,1013.64
2022-11-27T05:03:50.480Z,1013.60
2022-11-27T05:04:50.458Z,1013.61
2022-11-27T05:05:49.470Z,1013.61
2022-11-27T05:06:49.694Z,1013.62
2022-11-27T05:07:52.520Z,1013.64
2022-11-27T05:08:49.663Z,1013.63
2022-11-27T05:09:49.419Z,1013.62
2022-11-27T05:10:49.621Z,1013.61
2022-11-27T05:11:49.649Z,1013.64
2022-11-27T05:13:04.786Z,1013.67
2022-11-27T05:13:49.410Z,1013.70
2022-11-27T05:14:49.574Z,1013.70
2022-11-27T05:15:56.653Z,1013.72
2022-11-27T05:16:52.353Z,1013.70
2022-11-27T05:17:49.329Z,1013.71
2022-11-27T05:18:52.349Z,1013.70
2022-11-27T05:19:49.552Z,1013.68
2022-11-27T05:20:49.317Z,1013.64
2022-11-27T05:21:50.549Z,1013.66
2022-11-27T05:22:50.498Z,1013.69
2022-11-27T05:23:50.523Z,1013.66
2022-11-27T05:24:49.249Z,1013.66
2022-11-27T05:25:49.524Z,1013.68
2022-11-27T05:26:49.220Z,1013.63
2022-11-27T05:27:49.269Z,1013.65
2022-11-27T05:28:50.219Z,1013.62
2022-11-27T05:29:49.210Z,1013.62
2022-11-27T05:30:50.396Z,1013.61
2022-11-27T05:31:49.239Z,1013.59
2022-11-27T05:32:49.203Z,1013.61
2022-11-27T05:33:52.209Z,1013.61
2022-11-27T05:34:50.137Z,1013.62
2022-11-27T05:35:49.148Z,1013.58
2022-11-27T05:36:49.125Z,1013.58
2022-11-27T05:37:50.156Z,1013.58
2022-11-27T05:38:49.139Z,1013.58
2022-11-27T05:39:52.381Z,1013.56
2022-11-27T05:40:49.125Z,1013.56
2022-11-27T05:41:49.323Z,1013.55
2022-11-27T05:42:49.328Z,1013.54
2022-11-27T05:43:49.077Z,1013.48
2022-11-27T05:44:50.812Z,1013.51
2022-11-27T05:45:50.296Z,1013.56
2022-11-27T05:46:50.332Z,1013.58
2022-11-27T05:47:49.247Z,1013.59
2022-11-27T05:48:52.026Z,1013.59
2022-11-27T05:49:49.254Z,1013.60
2022-11-27T05:50:50.021Z,1013.63
2022-11-27T05:51:51.415Z,1013.63
2022-11-27T05:52:49.191Z,1013.57
2022-11-27T05:53:49.185Z,1013.60
2022-11-27T05:54:48.965Z,1013.55
2022-11-27T05:55:48.937Z,1013.56
2022-11-27T05:56:48.906Z,1013.51
2022-11-27T05:57:56.133Z,1013.50
2022-11-27T05:58:49.140Z,1013.46
2022-11-27T05:59:48.911Z,1013.52
2022-11-27T06:00:49.124Z,1013.49
2022-11-27T06:01:49.199Z,1013.51
2022-11-27T06:02:52.012Z,1013.47
2022-11-27T06:03:49.202Z,1013.51
2022-11-27T06:04:49.069Z,1013.49
2022-11-27T06:05:56.374Z,1013.44
2022-11-27T06:06:49.051Z,1013.43
2022-11-27T06:07:49.166Z,1013.44
2022-11-27T06:08:48.805Z,1013.47
2022-11-27T06:09:48.833Z,1013.50
2022-11-27T06:10:48.778Z,1013.50
2022-11-27T06:11:51.832Z,1013.51
2022-11-27T06:12:48.757Z,1013.52
2022-11-27T06:13:50.001Z,1013.49
2022-11-27T06:14:48.801Z,1013.49
2022-11-27T06:15:49.177Z,1013.48
2022-11-27T06:16:49.013Z,1013.45
2022-11-27T06:17:48.947Z,1013.47
2022-11-27T06:18:48.736Z,1013.42
2022-11-27T06:19:49.696Z,1013.43
2022-11-27T06:20:52.888Z,1013.43
2022-11-27T06:21:48.697Z,1013.46
2022-11-27T06:22:48.641Z,1013.47
2022-11-27T06:23:51.693Z,1013.48
2022-11-27T06:24:48.633Z,1013.48
2022-11-27T06:25:48.895Z,1013.51
2022-11-27T06:26:48.836Z,1013.50
2022-11-27T06:27:48.896Z,1013.51
2022-11-27T06:28:49.826Z,1013.54
2022-11-27T06:29:56.142Z,1013.51
2022-11-27T06:30:48.569Z,1013.53
2022-11-27T06:31:48.856Z,1013.51
2022-11-27T06:32:48.552Z,1013.48
2022-11-27T06:33:55.762Z,1013.47
2022-11-27T06:34:48.762Z,1013.43
2022-11-27T06:35:49.537Z,1013.40
2022-11-27T06:36:48.527Z,1013.36
2022-11-27T06:37:49.507Z,1013.35
2022-11-27T06:38:51.515Z,1013.32
2022-11-27T06:40:03.900Z,1013.27
2022-11-27T06:40:48.693Z,1013.29
2022-11-27T06:41:48.487Z,1013.22
2022-11-27T06:42:49.555Z,1013.23
2022-11-27T06:43:48.535Z,1013.25
2022-11-27T06:44:48.448Z,1013.24
2022-11-27T06:45:51.763Z,1013.28
2022-11-27T06:46:48.417Z,1013.26
2022-11-27T06:47:49.417Z,1013.24
2022-11-27T06:48:48.647Z,1013.28
2022-11-27T06:49:48.396Z,1013.26
2022-11-27T06:50:49.377Z,1013.27
2022-11-27T06:51:48.617Z,1013.28
2022-11-27T06:52:48.567Z,1013.22
2022-11-27T06:53:51.372Z,1013.21
2022-11-27T06:54:48.574Z,1013.16
2022-11-27T06:55:49.580Z,1013.14
2022-11-27T06:56:48.528Z,1013.12
2022-11-27T06:57:48.293Z,1013.11
2022-11-27T06:58:48.548Z,1013.14
2022-11-27T06:59:48.541Z,1013.09
2022-11-27T07:00:51.295Z,1013.13
2022-11-27T07:01:48.289Z,1013.13
2022-11-27T07:02:48.465Z,1013.13
2022-11-27T07:03:48.235Z,1013.13
2022-11-27T07:04:48.238Z,1013.14
2022-11-27T07:05:48.449Z,1013.12
2022-11-27T07:06:49.237Z,1013.07
2022-11-27T07:07:51.341Z,1013.06
2022-11-27T07:08:48.185Z,1013.04
2022-11-27T07:09:48.192Z,1012.97
2022-11-27T07:10:48.187Z,1012.97
2022-11-27T07:11:48.375Z,1012.99
2022-11-27T07:13:03.553Z,1012.87
2022-11-27T07:13:51.418Z,1012.92
2022-11-27T07:14:48.102Z,1012.93
2022-11-27T07:15:48.138Z,1012.95
2022-11-27T07:16:55.447Z,1012.95
2022-11-27T07:17:51.128Z,1012.95
2022-11-27T07:18:49.118Z,1012.97
2022-11-27T07:19:48.313Z,1012.93
2022-11-27T07:20:50.443Z,1012.89
2022-11-27T07:21:50.043Z,1012.87
2022-11-27T07:22:51.316Z,1012.86
2022-11-27T07:23:51.052Z,1012.83
2022-11-27T07:24:48.238Z,1012.83
2022-11-27T07:25:51.055Z,1012.83
2022-11-27T07:26:48.246Z,1012.83
2022-11-27T07:27:49.007Z,1012.84
2022-11-27T07:28:48.997Z,1012.85
2022-11-27T07:29:55.486Z,1012.84
2022-11-27T07:30:50.967Z,1012.84
2022-11-27T07:31:48.030Z,1012.85
2022-11-27T07:32:48.937Z,1012.84
2022-11-27T07:33:47.926Z,1012.86
2022-11-27T07:34:47.898Z,1012.85
2022-11-27T07:35:50.969Z,1012.81
2022-11-27T07:36:47.910Z,1012.84
2022-11-27T07:37:47.895Z,1012.87
2022-11-27T07:38:47.853Z,1012.87
2022-11-27T07:40:02.133Z,1012.86
2022-11-27T07:40:48.868Z,1012.86
2022-11-27T07:41:47.848Z,1012.87
2022-11-27T07:42:49.072Z,1012.93
2022-11-27T07:43:48.873Z,1012.91
2022-11-27T07:44:49.070Z,1012.87
2022-11-27T07:45:55.282Z,1012.85
2022-11-27T07:46:48.033Z,1012.81
2022-11-27T07:47:47.797Z,1012.76
2022-11-27T07:48:50.783Z,1012.76
2022-11-27T07:49:48.000Z,1012.76
2022-11-27T07:50:47.751Z,1012.76
2022-11-27T07:51:48.009Z,1012.77
2022-11-27T07:52:54.825Z,1012.77
2022-11-27T07:53:54.989Z,1012.83
2022-11-27T07:54:47.943Z,1012.76
2022-11-27T07:55:47.946Z,1012.74
2022-11-27T07:56:48.933Z,1012.73
2022-11-27T07:57:47.951Z,1012.73
2022-11-27T07:58:47.892Z,1012.72
2022-11-27T07:59:47.942Z,1012.81
2022-11-27T08:00:47.653Z,1012.83
2022-11-27T08:01:47.875Z,1012.86
2022-11-27T08:02:48.884Z,1012.80
2022-11-27T08:03:47.642Z,1012.89
2022-11-27T08:04:55.143Z,1012.89
2022-11-27T08:05:50.637Z,1012.89
2022-11-27T08:06:47.807Z,1012.90
2022-11-27T08:07:47.822Z,1012.93
2022-11-27T08:08:47.559Z,1012.89
2022-11-27T08:09:47.807Z,1012.85
2022-11-27T08:10:47.550Z,1012.84
2022-11-27T08:11:47.548Z,1012.83
2022-11-27T08:12:47.561Z,1012.81
2022-11-27T08:13:48.777Z,1012.82
2022-11-27T08:14:47.587Z,1012.82
2022-11-27T08:15:47.507Z,1012.78
2022-11-27T08:16:47.542Z,1012.77
2022-11-27T08:17:47.698Z,1012.78
2022-11-27T08:18:47.442Z,1012.74
2022-11-27T08:19:47.500Z,1012.77
2022-11-27T08:20:47.664Z,1012.81
2022-11-27T08:21:48.489Z,1012.79
2022-11-27T08:22:47.643Z,1012.81
2022-11-27T08:23:47.635Z,1012.82
2022-11-27T08:24:47.691Z,1012.78
2022-11-27T08:25:50.667Z,1012.80
2022-11-27T08:27:03.058Z,1012.77
2022-11-27T08:27:54.521Z,1012.79
2022-11-27T08:29:08.373Z,1012.76
2022-11-27T08:29:47.338Z,1012.74
2022-11-27T08:30:47.351Z,1012.73
2022-11-27T08:31:48.456Z,1012.71
2022-11-27T08:32:47.313Z,1012.72
2022-11-27T08:33:54.718Z,1012.79
2022-11-27T08:34:47.323Z,1012.77
2022-11-27T08:35:47.533Z,1012.85
2022-11-27T08:36:48.317Z,1012.87
2022-11-27T08:37:47.538Z,1012.85
2022-11-27T08:38:48.492Z,1012.83
2022-11-27T08:39:50.277Z,1012.80
2022-11-27T08:40:47.444Z,1012.81
2022-11-27T08:41:47.473Z,1012.77
2022-11-27T08:42:47.463Z,1012.72
2022-11-27T08:43:47.207Z,1012.69
2022-11-27T08:44:47.190Z,1012.63
2022-11-27T08:45:48.254Z,1012.62
2022-11-27T08:46:47.413Z,1012.56
2022-11-27T08:47:50.450Z,1012.54
2022-11-27T08:48:47.150Z,1012.56
2022-11-27T08:49:48.174Z,1012.51
2022-11-27T08:50:48.408Z,1012.51
2022-11-27T08:51:47.152Z,1012.48
2022-11-27T08:52:47.112Z,1012.48
2022-11-27T08:53:48.357Z,1012.45
2022-11-27T08:54:50.003Z,1012.41
2022-11-27T08:55:48.112Z,1012.43
2022-11-27T08:56:47.326Z,1012.39
2022-11-27T08:57:47.089Z,1012.39
2022-11-27T08:58:47.274Z,1012.42
2022-11-27T08:59:47.030Z,1012.36
2022-11-27T09:00:50.119Z,1012.37
2022-11-27T09:01:47.285Z,1012.35
2022-11-27T09:02:50.068Z,1012.29
2022-11-27T09:03:47.074Z,1012.32
2022-11-27T09:04:50.011Z,1012.29
2022-11-27T09:05:47.223Z,1012.28
2022-11-27T09:06:46.986Z,1012.27
2022-11-27T09:07:47.248Z,1012.28
2022-11-27T09:08:47.170Z,1012.25
2022-11-27T09:09:47.199Z,1012.27
2022-11-27T09:10:54.013Z,1012.34
2022-11-27T09:11:47.194Z,1012.21
2022-11-27T09:12:46.920Z,1012.29
2022-11-27T09:13:46.910Z,1012.30
2022-11-27T09:14:46.896Z,1012.29
2022-11-27T09:15:47.135Z,1012.33
2022-11-27T09:16:47.205Z,1012.37
2022-11-27T09:17:46.864Z,1012.40
2022-11-27T09:18:48.114Z,1012.38
2022-11-27T09:19:48.080Z,1012.36
2022-11-27T09:20:47.051Z,1012.39
2022-11-27T09:21:46.841Z,1012.34
2022-11-27T09:22:47.825Z,1012.30
2022-11-27T09:23:49.854Z,1012.26
2022-11-27T09:24:46.792Z,1012.27
2022-11-27T09:25:46.798Z,1012.29
2022-11-27T09:26:47.036Z,1012.23
2022-11-27T09:27:47.013Z,1012.22
2022-11-27T09:28:46.978Z,1012.21
2022-11-27T09:29:46.750Z,1012.22
2022-11-27T09:30:46.709Z,1012.14
2022-11-27T09:31:47.038Z,1012.05
2022-11-27T09:32:46.689Z,1011.94
2022-11-27T09:33:47.728Z,1011.91
2022-11-27T09:34:46.987Z,1011.83
2022-11-27T09:35:46.692Z,1011.81
2022-11-27T09:36:49.691Z,1011.75
2022-11-27T09:37:46.941Z,1011.71
2022-11-27T09:38:53.849Z,1011.65
2022-11-27T09:39:46.700Z,1011.67
2022-11-27T09:40:47.829Z,1011.67
2022-11-27T09:41:49.876Z,1011.66
2022-11-27T09:42:46.844Z,1011.64
2022-11-27T09:43:46.597Z,1011.66
2022-11-27T09:44:46.561Z,1011.71
2022-11-27T09:45:53.980Z,1011.73
2022-11-27T09:46:46.786Z,1011.73
2022-11-27T09:47:53.768Z,1011.73
2022-11-27T09:48:46.553Z,1011.74
2022-11-27T09:49:46.556Z,1011.72
2022-11-27T09:50:46.523Z,1011.73
2022-11-27T09:51:47.768Z,1011.73
2022-11-27T09:52:47.731Z,1011.72
2022-11-27T09:53:46.514Z,1011.76
2022-11-27T09:54:52.493Z,1011.72
2022-11-27T09:55:46.701Z,1011.66
2022-11-27T09:56:46.526Z,1011.70
2022-11-27T09:57:46.663Z,1011.68
2022-11-27T09:58:46.667Z,1011.68
2022-11-27T09:59:47.453Z,1011.69
2022-11-27T10:00:46.671Z,1011.68
2022-11-27T10:01:50.851Z,1011.64
2022-11-27T10:02:48.418Z,1011.63
2022-11-27T10:03:46.390Z,1011.61
2022-11-27T10:05:06.251Z,1011.58
2022-11-27T10:05:47.397Z,1011.59
2022-11-27T10:06:49.403Z,1011.58
2022-11-27T10:07:46.427Z,1011.59
2022-11-27T10:08:46.329Z,1011.57
2022-11-27T10:09:46.584Z,1011.61
2022-11-27T10:10:47.324Z,1011.53
2022-11-27T10:11:47.592Z,1011.53
2022-11-27T10:12:47.285Z,1011.49
2022-11-27T10:13:46.519Z,1011.43
2022-11-27T10:14:46.486Z,1011.48
2022-11-27T10:15:46.287Z,1011.45
2022-11-27T10:16:46.500Z,1011.42
2022-11-27T10:17:47.541Z,1011.41
2022-11-27T10:18:46.214Z,1011.36
2022-11-27T10:19:46.224Z,1011.35
2022-11-27T10:20:46.216Z,1011.33
2022-11-27T10:21:46.527Z,1011.34
2022-11-27T10:22:47.204Z,1011.27
2022-11-27T10:23:47.438Z,1011.27
2022-11-27T10:24:47.443Z,1011.24
2022-11-27T10:25:46.427Z,1011.23
2022-11-27T10:26:53.356Z,1011.18
2022-11-27T10:27:46.160Z,1011.16
2022-11-27T10:28:46.117Z,1011.13
2022-11-27T10:29:47.297Z,1011.09
2022-11-27T10:30:46.374Z,1011.04
2022-11-27T10:32:01.661Z,1011.04
2022-11-27T10:32:55.098Z,1011.08
2022-11-27T10:33:48.349Z,1011.05
2022-11-27T10:34:47.083Z,1011.03
2022-11-27T10:35:46.293Z,1011.07
2022-11-27T10:36:46.279Z,1011.07
2022-11-27T10:37:47.063Z,1011.03
2022-11-27T10:38:47.036Z,1011.05
2022-11-27T10:39:47.282Z,1010.99
2022-11-27T10:40:46.016Z,1010.98
2022-11-27T10:41:50.145Z,1010.99
2022-11-27T10:42:46.224Z,1010.97
2022-11-27T10:43:49.232Z,1010.91
2022-11-27T10:44:49.233Z,1010.91
2022-11-27T10:45:46.265Z,1010.91
2022-11-27T10:46:45.973Z,1010.89
2022-11-27T10:47:45.946Z,1010.94
2022-11-27T10:48:46.130Z,1010.92
2022-11-27T10:49:46.924Z,1010.91
2022-11-27T10:50:46.918Z,1010.89
2022-11-27T10:51:46.895Z,1010.91
2022-11-27T10:52:49.539Z,1010.86
2022-11-27T10:53:48.163Z,1010.82
2022-11-27T10:54:46.850Z,1010.81
2022-11-27T10:55:48.889Z,1010.78
2022-11-27T10:56:49.079Z,1010.78
2022-11-27T10:57:45.858Z,1010.72
2022-11-27T10:58:46.046Z,1010.72
2022-11-27T10:59:46.816Z,1010.67
2022-11-27T11:00:47.095Z,1010.66
2022-11-27T11:01:46.058Z,1010.67
2022-11-27T11:02:46.094Z,1010.62
2022-11-27T11:03:45.781Z,1010.59
2022-11-27T11:04:54.616Z,1010.61
2022-11-27T11:06:12.046Z,1010.55
2022-11-27T11:07:07.977Z,1010.56
2022-11-27T11:07:45.773Z,1010.49
2022-11-27T11:08:48.812Z,1010.52
2022-11-27T11:09:48.728Z,1010.43
2022-11-27T11:10:45.707Z,1010.45
2022-11-27T11:11:45.689Z,1010.42
2022-11-27T11:12:48.743Z,1010.39
2022-11-27T11:13:45.892Z,1010.36
2022-11-27T11:14:45.901Z,1010.36
2022-11-27T11:15:51.487Z,1010.40
2022-11-27T11:16:53.941Z,1010.35
2022-11-27T11:17:53.019Z,1010.39
2022-11-27T11:18:45.620Z,1010.38
2022-11-27T11:19:45.590Z,1010.33
2022-11-27T11:20:45.581Z,1010.37
2022-11-27T11:21:48.852Z,1010.30
2022-11-27T11:22:45.585Z,1010.28
2022-11-27T11:23:45.812Z,1010.25
2022-11-27T11:24:46.619Z,1010.27
2022-11-27T11:25:46.537Z,1010.26
2022-11-27T11:26:46.533Z,1010.22
2022-11-27T11:27:45.495Z,1010.24
2022-11-27T11:28:45.770Z,1010.20
2022-11-27T11:29:45.746Z,1010.21
2022-11-27T11:30:48.753Z,1010.19
2022-11-27T11:31:45.516Z,1010.15
2022-11-27T11:32:45.479Z,1010.13
2022-11-27T11:33:52.774Z,1010.08
2022-11-27T11:34:45.449Z,1010.08
2022-11-27T11:36:06.669Z,1010.06
2022-11-27T11:36:45.417Z,1010.06
2022-11-27T11:37:45.406Z,1010.02
2022-11-27T11:38:48.652Z,1010.01
2022-11-27T11:39:45.428Z,1009.98
2022-11-27T11:40:45.376Z,1009.97
2022-11-27T11:41:46.605Z,1009.95
2022-11-27T11:42:45.354Z,1009.93
2022-11-27T11:43:45.375Z,1009.97
2022-11-27T11:44:46.328Z,1009.94
2022-11-27T11:45:45.636Z,1009.98
2022-11-27T11:47:00.780Z,1009.99
2022-11-27T11:47:48.337Z,1009.98
2022-11-27T11:48:45.284Z,1009.96
2022-11-27T11:49:48.301Z,1009.89
2022-11-27T11:50:45.308Z,1009.92
2022-11-27T11:51:45.257Z,1009.88
2022-11-27T11:52:46.473Z,1009.86
2022-11-27T11:54:00.610Z,1009.85
2022-11-27T11:54:45.228Z,1009.85
2022-11-27T11:55:45.217Z,1009.79
2022-11-27T11:56:45.306Z,1009.76
2022-11-27T11:57:46.210Z,1009.73
2022-11-27T11:58:45.386Z,1009.74
2022-11-27T11:59:45.510Z,1009.69
2022-11-27T12:01:04.859Z,1009.74
2022-11-27T12:01:52.236Z,1009.70
2022-11-27T12:02:50.889Z,1009.71
2022-11-27T12:03:45.381Z,1009.72
2022-11-27T12:04:54.209Z,1009.76
2022-11-27T12:05:45.130Z,1009.73